sensor_id;sensor_type;location;lat;lon;timestamp;P1;P2;P0
48155;PMS5003;35568;48.104;11.782;2023-08-06T00:01:16;4;3;
48155;PMS5003;35568;48.104;11.782;2023-08-06T00:03:43;4;4;
48155;PMS5003;35568;48.104;11.782;2023-08-06T00:06:10;5;5;
48155;PMS5003;35568;48.104;11.782;2023-08-06T00:08:37;4;3;
48155;PMS5003;35568;48.104;11.782;2023-08-06T00:11:03;6;6;
48155;PMS5003;35568;48.104;11.782;2023-08-06T00:13:30;3;3;
48155;PMS5003;35568;48.104;11.782;2023-08-06T00:16:07;5;5;
48155;PMS5003;35568;48.104;11.782;2023-08-06T00:18:35;5;5;
48155;PMS5003;35568;48.104;11.782;2023-08-06T00:21:02;4;4;
48155;PMS5003;35568;48.104;11.782;2023-08-06T00:23:29;4;4;
48155;PMS5003;35568;48.104;11.782;2023-08-06T00:25:56;5;5;
48155;PMS5003;35568;48.104;11.782;2023-08-06T00:28:23;4;4;
48155;PMS5003;35568;48.104;11.782;2023-08-06T00:30:52;5;5;
48155;PMS5003;35568;48.104;11.782;2023-08-06T00:33:19;5;4;
48155;PMS5003;35568;48.104;11.782;2023-08-06T00:35:46;4;4;
48155;PMS5003;35568;48.104;11.782;2023-08-06T00:38:13;4;3;
48155;PMS5003;35568;48.104;11.782;2023-08-06T00:40:39;5;5;
48155;PMS5003;35568;48.104;11.782;2023-08-06T00:43:06;6;6;
48155;PMS5003;35568;48.104;11.782;2023-08-06T00:45:34;4;4;
48155;PMS5003;35568;48.104;11.782;2023-08-06T00:48:02;5;5;
48155;PMS5003;35568;48.104;11.782;2023-08-06T00:50:31;5;2;
48155;PMS5003;35568;48.104;11.782;2023-08-06T00:52:58;4;4;
48155;PMS5003;35568;48.104;11.782;2023-08-06T00:55:26;3;3;
48155;PMS5003;35568;48.104;11.782;2023-08-06T00:57:52;4;4;
48155;PMS5003;35568;48.104;11.782;2023-08-06T01:00:21;5;5;
48155;PMS5003;35568;48.104;11.782;2023-08-06T01:02:50;3;3;
48155;PMS5003;35568;48.104;11.782;2023-08-06T01:05:17;4;4;
48155;PMS5003;35568;48.104;11.782;2023-08-06T01:07:46;4;4;
48155;PMS5003;35568;48.104;11.782;2023-08-06T01:10:23;4;4;
48155;PMS5003;35568;48.104;11.782;2023-08-06T01:13:06;5;5;
48155;PMS5003;35568;48.104;11.782;2023-08-06T01:15:43;6;5;
48155;PMS5003;35568;48.104;11.782;2023-08-06T01:18:13;4;3;
48155;PMS5003;35568;48.104;11.782;2023-08-06T01:20:40;2;2;
48155;PMS5003;35568;48.104;11.782;2023-08-06T01:23:07;4;3;
48155;PMS5003;35568;48.104;11.782;2023-08-06T01:25:34;5;4;
48155;PMS5003;35568;48.104;11.782;2023-08-06T01:28:11;4;3;
48155;PMS5003;35568;48.104;11.782;2023-08-06T01:30:44;2;2;
48155;PMS5003;35568;48.104;11.782;2023-08-06T01:33:14;3;3;
48155;PMS5003;35568;48.104;11.782;2023-08-06T01:35:45;4;3;
48155;PMS5003;35568;48.104;11.782;2023-08-06T01:38:14;4;4;
48155;PMS5003;35568;48.104;11.782;2023-08-06T01:40:42;5;5;
48155;PMS5003;35568;48.104;11.782;2023-08-06T01:43:09;3;3;
48155;PMS5003;35568;48.104;11.782;2023-08-06T01:45:36;4;4;
48155;PMS5003;35568;48.104;11.782;2023-08-06T01:48:02;4;4;
48155;PMS5003;35568;48.104;11.782;2023-08-06T01:50:30;6;5;
48155;PMS5003;35568;48.104;11.782;2023-08-06T01:52:57;4;4;
48155;PMS5003;35568;48.104;11.782;2023-08-06T01:55:23;5;3;
48155;PMS5003;35568;48.104;11.782;2023-08-06T01:57:51;6;6;
48155;PMS5003;35568;48.104;11.782;2023-08-06T02:00:18;4;4;
48155;PMS5003;35568;48.104;11.782;2023-08-06T02:02:44;6;6;
48155;PMS5003;35568;48.104;11.782;2023-08-06T02:05:11;7;5;
48155;PMS5003;35568;48.104;11.782;2023-08-06T02:07:38;4;4;
48155;PMS5003;35568;48.104;11.782;2023-08-06T02:10:06;6;5;
48155;PMS5003;35568;48.104;11.782;2023-08-06T02:12:33;4;4;
48155;PMS5003;35568;48.104;11.782;2023-08-06T02:15:00;6;6;
48155;PMS5003;35568;48.104;11.782;2023-08-06T02:17:27;4;4;
48155;PMS5003;35568;48.104;11.782;2023-08-06T02:19:54;4;4;
48155;PMS5003;35568;48.104;11.782;2023-08-06T02:22:21;6;6;
48155;PMS5003;35568;48.104;11.782;2023-08-06T02:24:48;4;4;
48155;PMS5003;35568;48.104;11.782;2023-08-06T02:27:16;4;3;
48155;PMS5003;35568;48.104;11.782;2023-08-06T02:29:42;5;4;
48155;PMS5003;35568;48.104;11.782;2023-08-06T02:32:09;7;5;
48155;PMS5003;35568;48.104;11.782;2023-08-06T02:34:36;6;6;
48155;PMS5003;35568;48.104;11.782;2023-08-06T02:37:03;3;2;
48155;PMS5003;35568;48.104;11.782;2023-08-06T02:39:30;4;4;
48155;PMS5003;35568;48.104;11.782;2023-08-06T02:41:57;5;5;
48155;PMS5003;35568;48.104;11.782;2023-08-06T02:44:26;4;4;
48155;PMS5003;35568;48.104;11.782;2023-08-06T02:46:53;4;4;
48155;PMS5003;35568;48.104;11.782;2023-08-06T02:49:20;2;2;
48155;PMS5003;35568;48.104;11.782;2023-08-06T02:51:47;2;2;
48155;PMS5003;35568;48.104;11.782;2023-08-06T02:54:14;3;3;
48155;PMS5003;35568;48.104;11.782;2023-08-06T02:56:42;4;4;
48155;PMS5003;35568;48.104;11.782;2023-08-06T02:59:09;4;4;
48155;PMS5003;35568;48.104;11.782;2023-08-06T03:03:00;4;4;
48155;PMS5003;35568;48.104;11.782;2023-08-06T03:05:26;3;3;
48155;PMS5003;35568;48.104;11.782;2023-08-06T03:07:53;2;2;
48155;PMS5003;35568;48.104;11.782;2023-08-06T03:10:20;3;3;
48155;PMS5003;35568;48.104;11.782;2023-08-06T03:12:47;3;2;
48155;PMS5003;35568;48.104;11.782;2023-08-06T03:15:14;4;3;
48155;PMS5003;35568;48.104;11.782;2023-08-06T03:17:40;3;3;
48155;PMS5003;35568;48.104;11.782;2023-08-06T03:20:07;2;2;
48155;PMS5003;35568;48.104;11.782;2023-08-06T03:22:35;3;2;
48155;PMS5003;35568;48.104;11.782;2023-08-06T03:25:02;3;3;
48155;PMS5003;35568;48.104;11.782;2023-08-06T03:27:29;5;4;
48155;PMS5003;35568;48.104;11.782;2023-08-06T03:29:56;3;3;
48155;PMS5003;35568;48.104;11.782;2023-08-06T03:32:23;1;1;
48155;PMS5003;35568;48.104;11.782;2023-08-06T03:34:50;3;3;
48155;PMS5003;35568;48.104;11.782;2023-08-06T03:37:16;3;2;
48155;PMS5003;35568;48.104;11.782;2023-08-06T03:39:43;4;4;
48155;PMS5003;35568;48.104;11.782;2023-08-06T03:42:10;4;4;
48155;PMS5003;35568;48.104;11.782;2023-08-06T03:44:37;3;3;
48155;PMS5003;35568;48.104;11.782;2023-08-06T03:47:04;2;2;
48155;PMS5003;35568;48.104;11.782;2023-08-06T03:49:31;2;2;
48155;PMS5003;35568;48.104;11.782;2023-08-06T03:51:59;4;3;
48155;PMS5003;35568;48.104;11.782;2023-08-06T03:54:25;4;3;
48155;PMS5003;35568;48.104;11.782;2023-08-06T03:56:52;2;2;
48155;PMS5003;35568;48.104;11.782;2023-08-06T03:59:19;4;3;
48155;PMS5003;35568;48.104;11.782;2023-08-06T04:01:46;2;2;
48155;PMS5003;35568;48.104;11.782;2023-08-06T04:04:13;3;3;
48155;PMS5003;35568;48.104;11.782;2023-08-06T04:06:39;2;2;
48155;PMS5003;35568;48.104;11.782;2023-08-06T04:09:06;3;3;
48155;PMS5003;35568;48.104;11.782;2023-08-06T04:11:33;2;2;
48155;PMS5003;35568;48.104;11.782;2023-08-06T04:14:00;2;2;
48155;PMS5003;35568;48.104;11.782;2023-08-06T04:16:27;4;4;
48155;PMS5003;35568;48.104;11.782;2023-08-06T04:18:54;3;3;
48155;PMS5003;35568;48.104;11.782;2023-08-06T04:21:21;2;2;
48155;PMS5003;35568;48.104;11.782;2023-08-06T04:23:48;3;3;
48155;PMS5003;35568;48.104;11.782;2023-08-06T04:26:15;3;3;
48155;PMS5003;35568;48.104;11.782;2023-08-06T04:28:41;2;1;
48155;PMS5003;35568;48.104;11.782;2023-08-06T04:31:08;1;1;
48155;PMS5003;35568;48.104;11.782;2023-08-06T04:33:35;1;1;
48155;PMS5003;35568;48.104;11.782;2023-08-06T04:36:02;3;3;
48155;PMS5003;35568;48.104;11.782;2023-08-06T04:38:29;1;1;
48155;PMS5003;35568;48.104;11.782;2023-08-06T04:40:56;4;3;
48155;PMS5003;35568;48.104;11.782;2023-08-06T04:43:24;2;2;
48155;PMS5003;35568;48.104;11.782;2023-08-06T04:45:51;2;2;
48155;PMS5003;35568;48.104;11.782;2023-08-06T04:48:19;3;3;
48155;PMS5003;35568;48.104;11.782;2023-08-06T04:50:46;2;2;
48155;PMS5003;35568;48.104;11.782;2023-08-06T04:53:14;2;2;
48155;PMS5003;35568;48.104;11.782;2023-08-06T04:55:41;2;2;
48155;PMS5003;35568;48.104;11.782;2023-08-06T04:58:08;2;2;
48155;PMS5003;35568;48.104;11.782;2023-08-06T05:00:36;2;2;
48155;PMS5003;35568;48.104;11.782;2023-08-06T05:03:03;1;1;
48155;PMS5003;35568;48.104;11.782;2023-08-06T05:05:31;2;2;
48155;PMS5003;35568;48.104;11.782;2023-08-06T05:07:58;2;2;
48155;PMS5003;35568;48.104;11.782;2023-08-06T05:10:25;2;2;
48155;PMS5003;35568;48.104;11.782;2023-08-06T05:12:52;2;2;
48155;PMS5003;35568;48.104;11.782;2023-08-06T05:15:19;2;2;
48155;PMS5003;35568;48.104;11.782;2023-08-06T05:17:46;2;2;
48155;PMS5003;35568;48.104;11.782;2023-08-06T05:20:13;2;2;
48155;PMS5003;35568;48.104;11.782;2023-08-06T05:22:39;1;1;
48155;PMS5003;35568;48.104;11.782;2023-08-06T05:25:07;1;1;
48155;PMS5003;35568;48.104;11.782;2023-08-06T05:27:34;1;1;
48155;PMS5003;35568;48.104;11.782;2023-08-06T05:30:01;3;3;
48155;PMS5003;35568;48.104;11.782;2023-08-06T05:32:28;1;1;
48155;PMS5003;35568;48.104;11.782;2023-08-06T05:34:54;1;1;
48155;PMS5003;35568;48.104;11.782;2023-08-06T05:37:21;2;1;
48155;PMS5003;35568;48.104;11.782;2023-08-06T05:39:48;3;3;
48155;PMS5003;35568;48.104;11.782;2023-08-06T05:42:15;2;1;
48155;PMS5003;35568;48.104;11.782;2023-08-06T05:44:42;0;0;
48155;PMS5003;35568;48.104;11.782;2023-08-06T05:47:09;2;2;
48155;PMS5003;35568;48.104;11.782;2023-08-06T05:49:36;2;2;
48155;PMS5003;35568;48.104;11.782;2023-08-06T05:52:03;2;2;
48155;PMS5003;35568;48.104;11.782;2023-08-06T05:54:31;0;0;
48155;PMS5003;35568;48.104;11.782;2023-08-06T05:56:57;3;3;
48155;PMS5003;35568;48.104;11.782;2023-08-06T05:59:30;3;3;
48155;PMS5003;35568;48.104;11.782;2023-08-06T06:01:57;2;2;
48155;PMS5003;35568;48.104;11.782;2023-08-06T06:04:24;2;2;
48155;PMS5003;35568;48.104;11.782;2023-08-06T06:06:51;2;1;
48155;PMS5003;35568;48.104;11.782;2023-08-06T06:09:18;2;2;
48155;PMS5003;35568;48.104;11.782;2023-08-06T06:11:45;1;1;
48155;PMS5003;35568;48.104;11.782;2023-08-06T06:14:12;2;1;
48155;PMS5003;35568;48.104;11.782;2023-08-06T06:16:38;2;2;
48155;PMS5003;35568;48.104;11.782;2023-08-06T06:19:05;2;2;
48155;PMS5003;35568;48.104;11.782;2023-08-06T06:21:32;0;0;
48155;PMS5003;35568;48.104;11.782;2023-08-06T06:23:59;2;2;
48155;PMS5003;35568;48.104;11.782;2023-08-06T06:26:26;2;2;
48155;PMS5003;35568;48.104;11.782;2023-08-06T06:28:52;2;2;
48155;PMS5003;35568;48.104;11.782;2023-08-06T06:31:19;1;1;
48155;PMS5003;35568;48.104;11.782;2023-08-06T06:33:46;1;1;
48155;PMS5003;35568;48.104;11.782;2023-08-06T06:36:13;0;0;
48155;PMS5003;35568;48.104;11.782;2023-08-06T06:38:39;2;2;
48155;PMS5003;35568;48.104;11.782;2023-08-06T06:41:06;2;2;
48155;PMS5003;35568;48.104;11.782;2023-08-06T06:43:33;1;1;
48155;PMS5003;35568;48.104;11.782;2023-08-06T06:46:00;1;1;
48155;PMS5003;35568;48.104;11.782;2023-08-06T06:48:27;2;2;
48155;PMS5003;35568;48.104;11.782;2023-08-06T06:50:55;1;1;
48155;PMS5003;35568;48.104;11.782;2023-08-06T06:53:23;0;0;
48155;PMS5003;35568;48.104;11.782;2023-08-06T06:55:50;2;2;
48155;PMS5003;35568;48.104;11.782;2023-08-06T06:58:17;2;2;
48155;PMS5003;35568;48.104;11.782;2023-08-06T07:00:44;2;2;
48155;PMS5003;35568;48.104;11.782;2023-08-06T07:03:12;0;0;
48155;PMS5003;35568;48.104;11.782;2023-08-06T07:05:39;1;1;
48155;PMS5003;35568;48.104;11.782;2023-08-06T07:08:06;1;1;
48155;PMS5003;35568;48.104;11.782;2023-08-06T07:10:33;0;0;
48155;PMS5003;35568;48.104;11.782;2023-08-06T07:13:00;1;1;
48155;PMS5003;35568;48.104;11.782;2023-08-06T07:15:26;1;1;
48155;PMS5003;35568;48.104;11.782;2023-08-06T07:17:53;0;0;
48155;PMS5003;35568;48.104;11.782;2023-08-06T07:20:20;1;1;
48155;PMS5003;35568;48.104;11.782;2023-08-06T07:22:47;1;1;
48155;PMS5003;35568;48.104;11.782;2023-08-06T07:25:14;0;0;
48155;PMS5003;35568;48.104;11.782;2023-08-06T07:27:41;0;0;
48155;PMS5003;35568;48.104;11.782;2023-08-06T07:30:08;2;1;
48155;PMS5003;35568;48.104;11.782;2023-08-06T07:32:35;1;1;
48155;PMS5003;35568;48.104;11.782;2023-08-06T07:35:02;1;1;
48155;PMS5003;35568;48.104;11.782;2023-08-06T07:37:30;0;0;
48155;PMS5003;35568;48.104;11.782;2023-08-06T07:39:57;0;0;
48155;PMS5003;35568;48.104;11.782;2023-08-06T07:42:24;1;0;
48155;PMS5003;35568;48.104;11.782;2023-08-06T07:44:53;0;0;
48155;PMS5003;35568;48.104;11.782;2023-08-06T07:47:21;0;0;
48155;PMS5003;35568;48.104;11.782;2023-08-06T07:49:48;0;0;
48155;PMS5003;35568;48.104;11.782;2023-08-06T07:52:15;0;0;
48155;PMS5003;35568;48.104;11.782;2023-08-06T07:54:43;0;0;
48155;PMS5003;35568;48.104;11.782;2023-08-06T07:57:10;0;0;
48155;PMS5003;35568;48.104;11.782;2023-08-06T07:59:38;0;0;
48155;PMS5003;35568;48.104;11.782;2023-08-06T08:02:06;0;0;
48155;PMS5003;35568;48.104;11.782;2023-08-06T08:04:33;0;0;
48155;PMS5003;35568;48.104;11.782;2023-08-06T08:07:00;0;0;
48155;PMS5003;35568;48.104;11.782;2023-08-06T08:09:27;0;0;
48155;PMS5003;35568;48.104;11.782;2023-08-06T08:11:53;0;0;
48155;PMS5003;35568;48.104;11.782;2023-08-06T08:14:20;1;1;
48155;PMS5003;35568;48.104;11.782;2023-08-06T08:16:47;0;0;
48155;PMS5003;35568;48.104;11.782;2023-08-06T08:19:14;0;0;
48155;PMS5003;35568;48.104;11.782;2023-08-06T08:21:46;1;0;
48155;PMS5003;35568;48.104;11.782;2023-08-06T08:24:13;0;0;
48155;PMS5003;35568;48.104;11.782;2023-08-06T08:26:40;0;0;
48155;PMS5003;35568;48.104;11.782;2023-08-06T08:29:07;1;1;
48155;PMS5003;35568;48.104;11.782;2023-08-06T08:31:33;0;0;
48155;PMS5003;35568;48.104;11.782;2023-08-06T08:34:00;0;0;
48155;PMS5003;35568;48.104;11.782;2023-08-06T08:36:27;0;0;
48155;PMS5003;35568;48.104;11.782;2023-08-06T08:38:54;0;0;
48155;PMS5003;35568;48.104;11.782;2023-08-06T08:41:20;0;0;
48155;PMS5003;35568;48.104;11.782;2023-08-06T08:43:47;0;0;
48155;PMS5003;35568;48.104;11.782;2023-08-06T08:46:17;0;0;
48155;PMS5003;35568;48.104;11.782;2023-08-06T08:48:45;0;0;
48155;PMS5003;35568;48.104;11.782;2023-08-06T08:51:13;1;0;
48155;PMS5003;35568;48.104;11.782;2023-08-06T08:53:39;0;0;
48155;PMS5003;35568;48.104;11.782;2023-08-06T08:56:08;0;0;
48155;PMS5003;35568;48.104;11.782;2023-08-06T08:58:36;0;0;
48155;PMS5003;35568;48.104;11.782;2023-08-06T09:01:03;0;0;
48155;PMS5003;35568;48.104;11.782;2023-08-06T09:03:32;0;0;
48155;PMS5003;35568;48.104;11.782;2023-08-06T09:06:01;0;0;
48155;PMS5003;35568;48.104;11.782;2023-08-06T09:08:32;0;0;
48155;PMS5003;35568;48.104;11.782;2023-08-06T09:11:03;0;0;
48155;PMS5003;35568;48.104;11.782;2023-08-06T09:13:31;0;0;
48155;PMS5003;35568;48.104;11.782;2023-08-06T09:15:58;0;0;
48155;PMS5003;35568;48.104;11.782;2023-08-06T09:18:25;0;0;
48155;PMS5003;35568;48.104;11.782;2023-08-06T09:20:52;0;0;
48155;PMS5003;35568;48.104;11.782;2023-08-06T09:23:19;0;0;
48155;PMS5003;35568;48.104;11.782;2023-08-06T09:25:46;0;0;
48155;PMS5003;35568;48.104;11.782;2023-08-06T09:28:14;0;0;
48155;PMS5003;35568;48.104;11.782;2023-08-06T09:30:40;0;0;
48155;PMS5003;35568;48.104;11.782;2023-08-06T09:33:07;0;0;
48155;PMS5003;35568;48.104;11.782;2023-08-06T09:35:35;0;0;
48155;PMS5003;35568;48.104;11.782;2023-08-06T09:38:05;0;0;
48155;PMS5003;35568;48.104;11.782;2023-08-06T09:40:33;0;0;
48155;PMS5003;35568;48.104;11.782;2023-08-06T09:43:00;0;0;
48155;PMS5003;35568;48.104;11.782;2023-08-06T09:45:28;0;0;
48155;PMS5003;35568;48.104;11.782;2023-08-06T09:47:57;0;0;
48155;PMS5003;35568;48.104;11.782;2023-08-06T09:50:29;0;0;
48155;PMS5003;35568;48.104;11.782;2023-08-06T09:52:57;0;0;
48155;PMS5003;35568;48.104;11.782;2023-08-06T09:55:25;0;0;
48155;PMS5003;35568;48.104;11.782;2023-08-06T09:57:53;0;0;
48155;PMS5003;35568;48.104;11.782;2023-08-06T10:00:21;0;0;
48155;PMS5003;35568;48.104;11.782;2023-08-06T10:02:48;0;0;
48155;PMS5003;35568;48.104;11.782;2023-08-06T10:05:15;0;0;
48155;PMS5003;35568;48.104;11.782;2023-08-06T10:07:43;0;0;
48155;PMS5003;35568;48.104;11.782;2023-08-06T10:10:10;0;0;
48155;PMS5003;35568;48.104;11.782;2023-08-06T10:12:40;0;0;
48155;PMS5003;35568;48.104;11.782;2023-08-06T10:15:12;0;0;
48155;PMS5003;35568;48.104;11.782;2023-08-06T10:17:41;0;0;
48155;PMS5003;35568;48.104;11.782;2023-08-06T10:20:10;0;0;
48155;PMS5003;35568;48.104;11.782;2023-08-06T10:22:39;0;0;
48155;PMS5003;35568;48.104;11.782;2023-08-06T10:25:09;0;0;
48155;PMS5003;35568;48.104;11.782;2023-08-06T10:27:40;0;0;
48155;PMS5003;35568;48.104;11.782;2023-08-06T10:30:21;0;0;
48155;PMS5003;35568;48.104;11.782;2023-08-06T10:32:48;0;0;
48155;PMS5003;35568;48.104;11.782;2023-08-06T10:35:35;0;0;
48155;PMS5003;35568;48.104;11.782;2023-08-06T10:38:03;0;0;
48155;PMS5003;35568;48.104;11.782;2023-08-06T10:40:31;0;0;
48155;PMS5003;35568;48.104;11.782;2023-08-06T10:42:59;0;0;
48155;PMS5003;35568;48.104;11.782;2023-08-06T10:45:26;0;0;
48155;PMS5003;35568;48.104;11.782;2023-08-06T10:47:54;0;0;
48155;PMS5003;35568;48.104;11.782;2023-08-06T10:50:21;0;0;
48155;PMS5003;35568;48.104;11.782;2023-08-06T10:52:48;0;0;
48155;PMS5003;35568;48.104;11.782;2023-08-06T10:55:22;0;0;
48155;PMS5003;35568;48.104;11.782;2023-08-06T10:57:50;0;0;
48155;PMS5003;35568;48.104;11.782;2023-08-06T11:00:17;0;0;
48155;PMS5003;35568;48.104;11.782;2023-08-06T11:02:44;0;0;
48155;PMS5003;35568;48.104;11.782;2023-08-06T11:05:13;0;0;
48155;PMS5003;35568;48.104;11.782;2023-08-06T11:07:40;0;0;
48155;PMS5003;35568;48.104;11.782;2023-08-06T11:10:08;0;0;
48155;PMS5003;35568;48.104;11.782;2023-08-06T11:12:37;0;0;
48155;PMS5003;35568;48.104;11.782;2023-08-06T11:15:04;0;0;
48155;PMS5003;35568;48.104;11.782;2023-08-06T11:17:33;0;0;
48155;PMS5003;35568;48.104;11.782;2023-08-06T11:20:01;0;0;
48155;PMS5003;35568;48.104;11.782;2023-08-06T11:22:29;0;0;
48155;PMS5003;35568;48.104;11.782;2023-08-06T11:24:57;0;0;
48155;PMS5003;35568;48.104;11.782;2023-08-06T11:27:25;0;0;
48155;PMS5003;35568;48.104;11.782;2023-08-06T11:29:53;0;0;
48155;PMS5003;35568;48.104;11.782;2023-08-06T11:32:21;0;0;
48155;PMS5003;35568;48.104;11.782;2023-08-06T11:34:47;0;0;
48155;PMS5003;35568;48.104;11.782;2023-08-06T11:37:14;0;0;
48155;PMS5003;35568;48.104;11.782;2023-08-06T11:39:47;0;0;
48155;PMS5003;35568;48.104;11.782;2023-08-06T11:42:14;0;0;
48155;PMS5003;35568;48.104;11.782;2023-08-06T11:44:41;0;0;
48155;PMS5003;35568;48.104;11.782;2023-08-06T11:47:11;0;0;
48155;PMS5003;35568;48.104;11.782;2023-08-06T11:49:41;0;0;
48155;PMS5003;35568;48.104;11.782;2023-08-06T11:52:14;0;0;
48155;PMS5003;35568;48.104;11.782;2023-08-06T11:54:42;0;0;
48155;PMS5003;35568;48.104;11.782;2023-08-06T11:57:09;0;0;
48155;PMS5003;35568;48.104;11.782;2023-08-06T11:59:37;0;0;
48155;PMS5003;35568;48.104;11.782;2023-08-06T12:02:07;0;0;
48155;PMS5003;35568;48.104;11.782;2023-08-06T12:05:41;0;0;
48155;PMS5003;35568;48.104;11.782;2023-08-06T12:08:10;0;0;
48155;PMS5003;35568;48.104;11.782;2023-08-06T12:10:37;0;0;
48155;PMS5003;35568;48.104;11.782;2023-08-06T12:13:04;0;0;
48155;PMS5003;35568;48.104;11.782;2023-08-06T12:15:30;0;0;
48155;PMS5003;35568;48.104;11.782;2023-08-06T12:17:57;0;0;
48155;PMS5003;35568;48.104;11.782;2023-08-06T12:20:24;0;0;
48155;PMS5003;35568;48.104;11.782;2023-08-06T12:22:51;0;0;
48155;PMS5003;35568;48.104;11.782;2023-08-06T12:25:18;0;0;
48155;PMS5003;35568;48.104;11.782;2023-08-06T12:27:46;0;0;
48155;PMS5003;35568;48.104;11.782;2023-08-06T12:30:13;0;0;
48155;PMS5003;35568;48.104;11.782;2023-08-06T12:32:40;0;0;
48155;PMS5003;35568;48.104;11.782;2023-08-06T12:35:07;0;0;
48155;PMS5003;35568;48.104;11.782;2023-08-06T12:37:35;0;0;
48155;PMS5003;35568;48.104;11.782;2023-08-06T12:40:02;0;0;
48155;PMS5003;35568;48.104;11.782;2023-08-06T12:42:29;0;0;
48155;PMS5003;35568;48.104;11.782;2023-08-06T12:44:56;0;0;
48155;PMS5003;35568;48.104;11.782;2023-08-06T12:47:23;0;0;
48155;PMS5003;35568;48.104;11.782;2023-08-06T12:49:50;0;0;
48155;PMS5003;35568;48.104;11.782;2023-08-06T12:52:16;0;0;
48155;PMS5003;35568;48.104;11.782;2023-08-06T12:54:43;0;0;
48155;PMS5003;35568;48.104;11.782;2023-08-06T12:57:10;0;0;
48155;PMS5003;35568;48.104;11.782;2023-08-06T12:59:37;0;0;
48155;PMS5003;35568;48.104;11.782;2023-08-06T13:02:05;0;0;
48155;PMS5003;35568;48.104;11.782;2023-08-06T13:04:33;0;0;
48155;PMS5003;35568;48.104;11.782;2023-08-06T13:07:00;0;0;
48155;PMS5003;35568;48.104;11.782;2023-08-06T13:09:27;0;0;
48155;PMS5003;35568;48.104;11.782;2023-08-06T13:11:54;0;0;
48155;PMS5003;35568;48.104;11.782;2023-08-06T13:14:20;0;0;
48155;PMS5003;35568;48.104;11.782;2023-08-06T13:16:47;0;0;
48155;PMS5003;35568;48.104;11.782;2023-08-06T13:19:14;0;0;
48155;PMS5003;35568;48.104;11.782;2023-08-06T13:21:58;0;0;
48155;PMS5003;35568;48.104;11.782;2023-08-06T13:24:25;0;0;
48155;PMS5003;35568;48.104;11.782;2023-08-06T13:26:52;0;0;
48155;PMS5003;35568;48.104;11.782;2023-08-06T13:29:19;0;0;
48155;PMS5003;35568;48.104;11.782;2023-08-06T13:31:46;0;0;
48155;PMS5003;35568;48.104;11.782;2023-08-06T13:34:13;0;0;
48155;PMS5003;35568;48.104;11.782;2023-08-06T13:36:39;0;0;
48155;PMS5003;35568;48.104;11.782;2023-08-06T13:39:06;0;0;
48155;PMS5003;35568;48.104;11.782;2023-08-06T13:41:33;0;0;
48155;PMS5003;35568;48.104;11.782;2023-08-06T13:44:00;0;0;
48155;PMS5003;35568;48.104;11.782;2023-08-06T13:46:26;0;0;
48155;PMS5003;35568;48.104;11.782;2023-08-06T13:48:53;0;0;
48155;PMS5003;35568;48.104;11.782;2023-08-06T13:51:20;0;0;
48155;PMS5003;35568;48.104;11.782;2023-08-06T13:53:47;0;0;
48155;PMS5003;35568;48.104;11.782;2023-08-06T13:56:13;0;0;
48155;PMS5003;35568;48.104;11.782;2023-08-06T13:58:40;0;0;
48155;PMS5003;35568;48.104;11.782;2023-08-06T14:01:09;0;0;
48155;PMS5003;35568;48.104;11.782;2023-08-06T14:03:37;0;0;
48155;PMS5003;35568;48.104;11.782;2023-08-06T14:06:04;0;0;
48155;PMS5003;35568;48.104;11.782;2023-08-06T14:08:31;0;0;
48155;PMS5003;35568;48.104;11.782;2023-08-06T14:10:57;0;0;
48155;PMS5003;35568;48.104;11.782;2023-08-06T14:13:25;0;0;
48155;PMS5003;35568;48.104;11.782;2023-08-06T14:15:52;0;0;
48155;PMS5003;35568;48.104;11.782;2023-08-06T14:18:19;0;0;
48155;PMS5003;35568;48.104;11.782;2023-08-06T14:20:46;0;0;
48155;PMS5003;35568;48.104;11.782;2023-08-06T14:23:12;0;0;
48155;PMS5003;35568;48.104;11.782;2023-08-06T14:25:39;0;0;
48155;PMS5003;35568;48.104;11.782;2023-08-06T14:28:06;0;0;
48155;PMS5003;35568;48.104;11.782;2023-08-06T14:30:33;0;0;
48155;PMS5003;35568;48.104;11.782;2023-08-06T14:33:01;0;0;
48155;PMS5003;35568;48.104;11.782;2023-08-06T14:35:29;0;0;
48155;PMS5003;35568;48.104;11.782;2023-08-06T14:37:56;0;0;
48155;PMS5003;35568;48.104;11.782;2023-08-06T14:40:22;0;0;
48155;PMS5003;35568;48.104;11.782;2023-08-06T14:42:49;0;0;
48155;PMS5003;35568;48.104;11.782;2023-08-06T14:45:16;0;0;
48155;PMS5003;35568;48.104;11.782;2023-08-06T14:47:43;0;0;
48155;PMS5003;35568;48.104;11.782;2023-08-06T14:50:09;0;0;
48155;PMS5003;35568;48.104;11.782;2023-08-06T14:52:36;0;0;
48155;PMS5003;35568;48.104;11.782;2023-08-06T14:55:03;0;0;
48155;PMS5003;35568;48.104;11.782;2023-08-06T14:57:31;0;0;
48155;PMS5003;35568;48.104;11.782;2023-08-06T14:59:57;0;0;
48155;PMS5003;35568;48.104;11.782;2023-08-06T15:02:25;0;0;
48155;PMS5003;35568;48.104;11.782;2023-08-06T15:04:53;0;0;
48155;PMS5003;35568;48.104;11.782;2023-08-06T15:07:19;0;0;
48155;PMS5003;35568;48.104;11.782;2023-08-06T15:09:46;0;0;
48155;PMS5003;35568;48.104;11.782;2023-08-06T15:12:14;0;0;
48155;PMS5003;35568;48.104;11.782;2023-08-06T15:14:40;0;0;
48155;PMS5003;35568;48.104;11.782;2023-08-06T15:17:07;0;0;
48155;PMS5003;35568;48.104;11.782;2023-08-06T15:19:34;0;0;
48155;PMS5003;35568;48.104;11.782;2023-08-06T15:22:01;0;0;
48155;PMS5003;35568;48.104;11.782;2023-08-06T15:24:28;0;0;
48155;PMS5003;35568;48.104;11.782;2023-08-06T15:26:54;0;0;
48155;PMS5003;35568;48.104;11.782;2023-08-06T15:29:21;0;0;
48155;PMS5003;35568;48.104;11.782;2023-08-06T15:31:48;0;0;
48155;PMS5003;35568;48.104;11.782;2023-08-06T15:34:15;0;0;
48155;PMS5003;35568;48.104;11.782;2023-08-06T15:36:41;0;0;
48155;PMS5003;35568;48.104;11.782;2023-08-06T15:39:08;0;0;
48155;PMS5003;35568;48.104;11.782;2023-08-06T15:41:35;0;0;
48155;PMS5003;35568;48.104;11.782;2023-08-06T15:44:02;0;0;
48155;PMS5003;35568;48.104;11.782;2023-08-06T15:46:29;0;0;
48155;PMS5003;35568;48.104;11.782;2023-08-06T15:48:56;0;0;
48155;PMS5003;35568;48.104;11.782;2023-08-06T15:51:23;0;0;
48155;PMS5003;35568;48.104;11.782;2023-08-06T15:53:50;0;0;
48155;PMS5003;35568;48.104;11.782;2023-08-06T15:56:17;0;0;
48155;PMS5003;35568;48.104;11.782;2023-08-06T15:58:43;0;0;
48155;PMS5003;35568;48.104;11.782;2023-08-06T16:01:10;0;0;
48155;PMS5003;35568;48.104;11.782;2023-08-06T16:03:37;0;0;
48155;PMS5003;35568;48.104;11.782;2023-08-06T16:06:04;0;0;
48155;PMS5003;35568;48.104;11.782;2023-08-06T16:08:30;0;0;
48155;PMS5003;35568;48.104;11.782;2023-08-06T16:10:57;0;0;
48155;PMS5003;35568;48.104;11.782;2023-08-06T16:13:24;0;0;
48155;PMS5003;35568;48.104;11.782;2023-08-06T16:15:51;0;0;
48155;PMS5003;35568;48.104;11.782;2023-08-06T16:18:18;0;0;
48155;PMS5003;35568;48.104;11.782;2023-08-06T16:20:44;1;1;
48155;PMS5003;35568;48.104;11.782;2023-08-06T16:23:11;0;0;
48155;PMS5003;35568;48.104;11.782;2023-08-06T16:25:38;1;0;
48155;PMS5003;35568;48.104;11.782;2023-08-06T16:28:06;0;0;
48155;PMS5003;35568;48.104;11.782;2023-08-06T16:30:32;0;0;
48155;PMS5003;35568;48.104;11.782;2023-08-06T16:32:59;0;0;
48155;PMS5003;35568;48.104;11.782;2023-08-06T16:35:26;1;1;
48155;PMS5003;35568;48.104;11.782;2023-08-06T16:37:54;0;0;